Aérodrome :
LOGIN :

S'inscrire | Disclaimer

   EN    FR    IT 

 










Légende :    VFR   VFR Marginal   IFR   IFR Intensif   IFR Très Intensif
Visi : 
Plafond : 
>= 8 km
>= 3000ft
5 à 8 km
1000 à 3000 ft
1500m à 5 km
500 à 1000 ft
800 à 1500m
200 à 500 ft
< 800m
< 200 ft
Symboles :   Orages  Brouillard  Fortes neiges  Fortes précipitations  Vent > 20 kt
SIGMETs :   Divers  Orages  Givrage  Turbulence  Onde Orograph.  Cendres Volcan.







- Altitude de l'aérodrome : 266 ft
- Code IATA : NCL
- Voir les cartes d'approche


EGNT - Newcastle

DERNIER METAR :
  • 210050Z 16007KT 100V200 9000 -RA SCT015 10/08 Q0997

METARs EXPIRÉS :
  • 210020Z 15005KT 090V200 9999 FEW015 10/07 Q0997
  • 202350Z 15004KT 100V200 9999 FEW025 10/07 Q0998
  • 202320Z 16005KT 110V200 9999 FEW025 10/07 Q0999
  • 202250Z 15006KT 110V200 9999 FEW035 10/08 Q0999
  • 202220Z 18009KT 140V220 9999 -RA FEW035 10/07 Q0999

TAF TAF EGNT
Valide du 21 à 00h jusqu'au 22 à 00h UTC


202303Z 2100/2124 14012KT 9999 FEW018 SCT030
TEMPO 2100/2104 15015G25KT 6000 RA BKN007
PROB30
TEMPO 2104/2109 9000 BKN009
BECMG 2109/2112 17017G27KT
BECMG 2115/2118 12012KT
TEMPO 2115/2124 6000 SHRA BKN008
BECMG 2118/2121 28011KT
PROB40
TEMPO 2118/2122 4000 +RA BKN004
ATIS : +44 191 214 3400
Pas de NOTAMs connus pour ce terrain.



MET'MAP, la Météo Aéronautique d'un coup d'oeil ! - Copyright ORBIFLY Décembre 2007 - Disclaimer

ORBIFLY MET'MAP TEAM :

Programmation & Développement : Alexandra Zaïnal
Conception & Développement : Baudouin d'Aumeries
Co-Programmation & Développement : Marc-Olivier Méhu
Soutien technique & logistique : Manuel Goepfert

Contact : metmap@orbifly.com




SOURCES & CREDITS :

   NOAA